Time;durP1;ratioP1;P1;durP2;ratioP2;P2;SDS_P1;SDS_P2;PMS_P1;PMS_P2;Temp;Humidity;BMP_temperature;BMP_pressure;BME280_temperature;BME280_humidity;BME280_pressure;Samples;Min_cycle;Max_cycle;Signal;HPM_P1;HPM_P2
2023/10/16 00:00:29;;;;;;;0.97;0.87;;;;;;;10.36;100.00;64032.84;5070716;28;20173;-54
2023/10/16 00:03:00;;;;;;;3.47;1.10;;;;;;;10.47;100.00;64041.81;5070824;28;20239;-54
2023/10/16 00:05:35;;;;;;;1.20;1.10;;;;;;;10.59;100.00;64059.97;5069307;28;20212;-54
2023/10/16 00:08:05;;;;;;;1.27;0.90;;;;;;;10.53;100.00;64051.44;5070723;28;20216;-56
2023/10/16 00:10:35;;;;;;;1.80;0.80;;;;;;;10.61;100.00;64057.69;5070549;28;20192;-55
2023/10/16 00:13:05;;;;;;;0.80;0.80;;;;;;;10.52;100.00;64050.34;5070464;28;20213;-53
2023/10/16 00:15:44;;;;;;;2.10;0.80;;;;;;;10.58;100.00;64051.34;5070416;28;20205;-53
2023/10/16 00:18:16;;;;;;;1.53;0.90;;;;;;;10.45;100.00;64042.69;5063194;22;20228;-53
2023/10/16 00:20:41;;;;;;;1.07;0.70;;;;;;;10.36;100.00;64032.28;5070582;28;20690;-54
2023/10/16 00:23:10;;;;;;;0.80;0.80;;;;;;;10.35;100.00;64036.22;5070409;28;20205;-56
2023/10/16 00:25:39;;;;;;;0.80;0.70;;;;;;;10.28;100.00;64021.56;5070136;28;20207;-53
2023/10/16 00:28:08;;;;;;;0.87;0.87;;;;;;;10.23;100.00;64018.63;5052597;28;20240;-53
2023/10/16 00:30:35;;;;;;;0.73;0.73;;;;;;;10.20;100.00;64012.81;5070316;28;20193;-54
2023/10/16 00:33:01;;;;;;;0.80;0.80;;;;;;;10.21;100.00;64016.44;5052676;28;20208;-54
2023/10/16 00:35:27;;;;;;;0.83;0.83;;;;;;;10.23;100.00;64018.06;5070194;28;20205;-53
2023/10/16 00:37:52;;;;;;;2.63;0.97;;;;;;;10.09;100.00;64003.28;5070212;28;20213;-54
2023/10/16 00:40:33;;;;;;;1.20;1.10;;;;;;;10.00;100.00;63995.94;5070259;28;20192;-53
2023/10/16 00:43:28;;;;;;;3.80;0.90;;;;;;;10.04;100.00;63995.84;5073287;28;20216;-54
2023/10/16 00:46:05;;;;;;;0.70;0.70;;;;;;;10.03;100.00;63999.78;5073764;28;20188;-53
2023/10/16 00:48:31;;;;;;;0.70;0.60;;;;;;;10.07;100.00;64001.09;5073693;28;20193;-54
2023/10/16 00:50:58;;;;;;;1.00;1.00;;;;;;;10.02;100.00;63995.59;5073334;28;20204;-53
2023/10/16 00:53:27;;;;;;;0.77;0.77;;;;;;;9.93;100.00;63983.81;5073263;28;20240;-53
2023/10/16 00:55:58;;;;;;;1.07;1.00;;;;;;;9.96;100.00;63989.03;5056064;28;20277;-54
2023/10/16 00:58:29;;;;;;;1.03;1.00;;;;;;;10.01;100.00;63992.00;5073452;28;20212;-53
2023/10/16 01:00:57;;;;;;;1.73;0.93;;;;;;;10.01;100.00;63995.06;5073368;28;20197;-53
2023/10/16 01:03:24;;;;;;;1.37;1.27;;;;;;;10.00;100.00;63993.41;5073264;28;20200;-56
2023/10/16 01:05:50;;;;;;;1.10;1.10;;;;;;;9.88;100.00;63980.28;5055321;28;20193;-54
2023/10/16 01:08:17;;;;;;;3.17;1.67;;;;;;;9.83;100.00;63972.88;5073104;28;20213;-58
2023/10/16 01:10:50;;;;;;;1.90;1.80;;;;;;;9.85;100.00;63975.06;5055308;28;20177;-54
2023/10/16 01:13:16;;;;;;;2.20;2.00;;;;;;;9.75;100.00;63966.09;5073141;28;20209;-55
2023/10/16 01:15:50;;;;;;;2.07;1.93;;;;;;;9.79;100.00;63972.97;5073242;28;20227;-53
2023/10/16 01:18:17;;;;;;;2.77;2.57;;;;;;;9.65;100.00;63953.19;5055172;28;20697;-59
2023/10/16 01:20:50;;;;;;;4.17;2.30;;;;;;;9.63;100.00;63955.47;5073129;28;20205;-60
2023/10/16 01:23:19;;;;;;;2.43;2.20;;;;;;;9.63;100.00;63955.47;5073053;28;20212;-55
2023/10/16 01:25:48;;;;;;;5.87;2.80;;;;;;;9.61;100.00;63950.78;5073105;28;20200;-55
2023/10/16 01:28:15;;;;;;;4.40;2.83;;;;;;;9.55;100.00;63944.78;5073059;28;20208;-53
2023/10/16 01:30:47;;;;;;;5.00;3.07;;;;;;;9.49;100.00;63940.72;5073108;28;20400;-51
2023/10/16 01:33:19;;;;;;;3.63;2.87;;;;;;;9.47;100.00;63933.50;5073189;28;20258;-51
2023/10/16 01:35:50;;;;;;;3.50;3.10;;;;;;;9.57;100.00;63946.94;5072988;28;20284;-52
2023/10/16 01:38:17;;;;;;;3.30;3.00;;;;;;;9.55;100.00;63942.25;5072805;28;20223;-53
2023/10/16 01:40:47;;;;;;;3.50;3.20;;;;;;;9.53;100.00;63942.59;5072603;28;20253;-54
2023/10/16 01:43:14;;;;;;;4.83;3.50;;;;;;;9.56;100.00;63943.34;5072954;28;20208;-52
2023/10/16 01:45:49;;;;;;;3.37;3.00;;;;;;;9.53;100.00;63940.06;5054655;28;20212;-51
2023/10/16 01:48:19;;;;;;;4.77;3.80;;;;;;;9.64;100.00;63952.09;5072643;28;20216;-53
2023/10/16 01:50:47;;;;;;;5.33;4.10;;;;;;;9.65;100.00;63960.72;5072626;28;20193;-52
2023/10/16 01:53:15;;;;;;;8.50;4.23;;;;;;;9.43;100.00;63928.59;5071357;28;20295;-52
2023/10/16 01:55:47;;;;;;;9.80;5.00;;;;;;;9.29;100.00;63916.88;5072762;28;20196;-55
2023/10/16 01:58:15;;;;;;;6.93;4.47;;;;;;;9.25;100.00;63911.97;5072346;28;20262;-54
2023/10/16 02:00:41;;;;;;;6.83;4.50;;;;;;;9.26;100.00;63911.09;5072510;28;20197;-56
2023/10/16 02:03:08;;;;;;;6.83;5.03;;;;;;;9.19;100.00;63905.41;5054213;28;20219;-55
2023/10/16 02:05:33;;;;;;;6.37;4.67;;;;;;;9.16;100.00;63902.13;5072484;28;20703;-54
2023/10/16 02:07:59;;;;;;;5.93;5.33;;;;;;;9.14;100.00;63900.50;5072487;28;20691;-55
2023/10/16 02:10:25;;;;;;;6.63;4.87;;;;;;;9.07;100.00;63892.81;5072282;28;20249;-52
2023/10/16 02:12:50;;;;;;;5.70;5.10;;;;;;;9.27;100.00;63911.66;5054205;28;20224;-56
2023/10/16 02:15:21;;;;;;;6.50;4.63;;;;;;;9.20;100.00;63909.56;5072162;28;20623;-52
2023/10/16 02:17:49;;;;;;;5.13;4.63;;;;;;;9.13;100.00;63898.84;5072608;28;20744;-53
2023/10/16 02:20:16;;;;;;;3.83;3.40;;;;;;;9.15;100.00;63901.03;5072060;28;20234;-54
2023/10/16 02:22:42;;;;;;;4.80;3.90;;;;;;;9.17;100.00;63900.72;5072438;28;20212;-54
2023/10/16 02:25:17;;;;;;;5.57;3.50;;;;;;;9.15;100.00;63903.56;5072325;28;20641;-53
2023/10/16 02:27:43;;;;;;;4.67;4.00;;;;;;;9.10;100.00;63896.13;5072203;28;20218;-52
2023/10/16 02:30:28;;;;;;;6.00;3.80;;;;;;;9.12;100.00;63897.75;5053990;28;20271;-53
2023/10/16 02:32:59;;;;;;;7.07;4.67;;;;;;;9.18;100.00;63904.31;5054295;28;20277;-51
2023/10/16 02:35:25;;;;;;;4.77;4.33;;;;;;;9.13;100.00;63896.34;5071948;28;20221;-54
2023/10/16 02:37:53;;;;;;;4.53;4.13;;;;;;;9.24;99.94;63908.34;5071866;28;20235;-53
2023/10/16 02:40:25;;;;;;;5.40;3.60;;;;;;;9.21;99.38;63907.59;5071920;28;20252;-53
2023/10/16 02:42:55;;;;;;;4.10;3.80;;;;;;;9.22;100.00;63908.69;5053902;28;20595;-53
2023/10/16 02:45:27;;;;;;;6.63;4.57;;;;;;;9.25;99.30;63914.47;5071957;28;20212;-53
2023/10/16 02:47:53;;;;;;;4.43;3.93;;;;;;;9.21;98.97;63907.59;5071852;28;20217;-52
2023/10/16 02:50:19;;;;;;;6.13;4.10;;;;;;;9.32;98.97;63922.13;5071774;28;20207;-51
2023/10/16 02:52:48;;;;;;;4.20;3.30;;;;;;;9.29;98.95;63916.34;5077624;22;20256;-52
2023/10/16 02:55:16;;;;;;;6.27;4.83;;;;;;;9.23;98.65;63909.78;5071594;28;20244;-51
2023/10/16 02:57:43;;;;;;;4.87;3.90;;;;;;;9.39;96.98;63927.28;5071750;28;20299;-53
2023/10/16 03:00:26;;;;;;;4.10;3.70;;;;;;;9.40;96.76;63927.81;5071522;28;20201;-53
2023/10/16 03:02:52;;;;;;;4.67;3.50;;;;;;;9.23;96.35;63910.31;5070170;28;20216;-53
2023/10/16 03:05:24;;;;;;;4.33;3.93;;;;;;;9.18;95.83;63904.84;5071296;28;20189;-53
2023/10/16 03:07:51;;;;;;;5.87;3.57;;;;;;;9.09;96.03;63894.47;5071532;28;20212;-52
2023/10/16 03:10:20;;;;;;;6.27;3.70;;;;;;;9.17;95.50;63903.75;5071476;28;20227;-53
2023/10/16 03:12:49;;;;;;;4.37;3.97;;;;;;;9.18;95.46;63906.81;5069894;28;20725;-55
2023/10/16 03:15:27;;;;;;;5.10;3.90;;;;;;;9.16;95.28;63902.66;5071290;28;20208;-54
2023/10/16 03:17:54;;;;;;;4.40;4.00;;;;;;;9.05;96.38;63893.16;5069938;28;20717;-54
2023/10/16 03:20:35;;;;;;;4.67;3.97;;;;;;;9.20;95.91;63906.50;5071388;28;20739;-51
2023/10/16 03:23:06;;;;;;;5.23;3.67;;;;;;;9.06;96.07;63891.75;5070362;28;20201;-52
2023/10/16 03:28:11;;;;;;;5.13;3.67;;;;;;;9.17;95.55;63905.75;5077237;22;20293;-50
2023/10/16 03:30:37;;;;;;;4.93;3.50;;;;;;;8.98;95.38;63882.44;5071279;28;20274;-53
2023/10/16 03:33:04;;;;;;;4.27;3.87;;;;;;;9.01;95.23;63885.72;5071012;28;20690;-52
2023/10/16 03:35:30;;;;;;;4.83;4.33;;;;;;;8.94;95.91;63878.06;5069649;28;20223;-52
2023/10/16 03:37:56;;;;;;;4.80;4.30;;;;;;;9.02;95.67;63886.81;5071447;28;20221;-51
2023/10/16 03:40:27;;;;;;;3.90;3.57;;;;;;;8.97;94.93;63881.34;5071117;28;20283;-52
2023/10/16 03:42:53;;;;;;;7.00;4.03;;;;;;;8.86;95.70;63869.88;5071153;28;20208;-51
2023/10/16 03:45:22;;;;;;;10.43;6.70;;;;;;;9.79;100.00;63970.47;5070912;28;20200;-51
2023/10/16 03:47:58;;;;;;;6.00;3.93;;;;;;;10.20;94.66;64015.31;5070740;28;20205;-54
2023/10/16 03:50:34;;;;;;;4.33;3.70;;;;;;;9.44;93.70;63932.72;5070972;28;20291;-52
2023/10/16 03:53:01;;;;;;;5.07;4.10;;;;;;;9.20;95.40;63906.50;5054578;28;20283;-52
2023/10/16 03:55:27;;;;;;;6.23;4.20;;;;;;;9.13;96.08;63898.84;5069462;28;20217;-54
2023/10/16 03:57:55;;;;;;;7.90;4.33;;;;;;;9.12;96.46;63900.25;5070774;28;20216;-56
2023/10/16 04:00:33;;;;;;;6.17;4.23;;;;;;;9.05;96.10;63890.63;5070636;28;20200;-55
2023/10/16 04:02:59;;;;;;;5.60;4.43;;;;;;;9.06;95.87;63893.69;5071194;28;20216;-53
2023/10/16 04:08:25;;;;;;;5.90;4.57;;;;;;;8.85;96.11;63868.78;5036699;28;20235;-53
2023/10/16 04:10:53;;;;;;;7.27;4.77;;;;;;;8.86;96.89;63866.81;5069207;28;20201;-54
2023/10/16 04:13:19;;;;;;;7.03;5.17;;;;;;;8.90;96.22;63876.22;5069246;28;20204;-53
2023/10/16 04:31:44;;;;;;;6.43;4.60;;;;;;;8.88;95.20;63871.53;5074228;28;20205;-52
2023/10/16 04:36:53;;;;;;;4.23;3.80;;;;;;;8.75;94.74;63857.31;5074120;28;20216;-55
2023/10/16 04:45:00;;;;;;;5.20;4.03;;;;;;;8.77;94.07;63862.56;5073703;28;20211;-54
2023/10/16 04:47:28;;;;;;;5.40;4.03;;;;;;;8.80;93.93;63863.34;5072686;28;20219;-52
2023/10/16 04:50:05;;;;;;;49.20;39.10;;;;;;;9.56;100.00;63940.28;5073570;28;20197;-56
2023/10/16 04:55:42;;;;;;;4.87;4.23;;;;;;;8.94;94.42;63878.63;5073538;28;20235;-51
2023/10/16 04:58:27;;;;;;;7.23;4.40;;;;;;;8.91;93.96;63875.34;5073156;28;20220;-55
2023/10/16 05:06:05;;;;;;;12.80;4.40;;;;;;;8.65;95.03;63846.38;5073246;28;20208;-53
2023/10/16 06:14:13;;;;;;;4.20;3.00;;;;;;;8.91;86.93;63874.78;5072406;28;20204;-55
2023/10/16 06:16:56;;;;;;;3.83;2.70;;;;;;;8.82;86.51;63868.03;5072363;28;20224;-55
2023/10/16 06:19:25;;;;;;;5.87;2.67;;;;;;;8.75;86.44;63854.78;5071017;28;20192;-55
2023/10/16 06:21:57;;;;;;;5.90;3.33;;;;;;;8.79;85.91;63861.69;5071076;28;20209;-55
2023/10/16 06:24:44;;;;;;;3.80;2.73;;;;;;;8.79;86.22;63859.72;5070789;28;20227;-55
2023/10/16 06:27:11;;;;;;;7.03;3.03;;;;;;;8.88;85.87;63869.00;5072367;28;20209;-55
2023/10/16 06:32:38;;;;;;;7.63;4.07;;;;;;;9.11;84.11;63896.66;5058654;28;20279;-56
2023/10/16 06:35:07;;;;;;;6.07;3.03;;;;;;;9.07;84.45;63892.81;5072285;28;20251;-54
2023/10/16 06:37:33;;;;;;;5.00;2.97;;;;;;;9.19;82.91;63903.44;5070882;28;20212;-55
2023/10/16 06:40:04;;;;;;;4.77;3.30;;;;;;;9.20;83.29;63906.50;5071485;28;20292;-55
2023/10/16 06:42:30;;;;;;;6.17;3.33;;;;;;;9.45;81.04;63933.28;5070829;28;20209;-57
2023/10/16 06:45:09;;;;;;;6.27;3.40;;;;;;;9.32;81.83;63917.09;5070429;28;20227;-55
2023/10/16 06:47:35;;;;;;;3.57;2.50;;;;;;;9.44;79.78;63932.19;5071979;28;20204;-60
2023/10/16 06:52:54;;;;;;;2.87;2.30;;;;;;;9.58;79.07;63947.50;5071834;28;20225;-55
2023/10/16 06:55:21;;;;;;;5.50;3.00;;;;;;;9.59;78.49;63948.59;5070749;28;20197;-54
2023/10/16 06:57:48;;;;;;;7.67;2.67;;;;;;;9.66;78.01;63954.28;5070646;28;20212;-55
2023/10/16 07:00:27;;;;;;;4.70;2.63;;;;;;;9.48;77.76;63936.56;5071773;28;20257;-54
2023/10/16 07:02:55;;;;;;;2.57;2.37;;;;;;;9.33;79.00;63921.25;5070726;28;20231;-54
2023/10/16 07:05:27;;;;;;;5.73;3.20;;;;;;;9.42;78.64;63930.53;5070818;28;20213;-54
2023/10/16 07:07:56;;;;;;;8.87;2.57;;;;;;;9.33;79.14;63923.22;5071704;28;20251;-54
2023/10/16 07:10:23;;;;;;;5.53;2.60;;;;;;;9.31;79.04;63919.06;5071933;28;20193;-53
2023/10/16 07:13:02;;;;;;;7.43;3.03;;;;;;;9.46;78.98;63934.91;5072049;28;20207;-54
2023/10/16 07:15:29;;;;;;;4.87;2.33;;;;;;;9.69;77.20;63960.06;5071740;28;20197;-55
2023/10/16 07:17:55;;;;;;;5.93;3.10;;;;;;;9.85;75.84;63977.56;5071422;28;20258;-54
2023/10/16 07:20:30;;;;;;;2.83;2.30;;;;;;;9.78;75.96;63964.31;5070290;28;20192;-54
2023/10/16 07:22:59;;;;;;;4.87;3.13;;;;;;;9.84;75.29;63976.47;5070241;28;20285;-54
2023/10/16 07:25:37;;;;;;;5.13;2.70;;;;;;;9.82;75.13;63973.72;5072142;28;20216;-53
2023/10/16 07:28:10;;;;;;;5.33;2.50;;;;;;;9.91;74.78;63984.13;5071730;28;20713;-53
2023/10/16 07:30:36;;;;;;;4.43;2.37;;;;;;;10.05;74.66;64001.41;5071308;28;20205;-52
2023/10/16 07:33:03;;;;;;;2.77;2.10;;;;;;;10.07;73.91;63996.59;5071072;28;20244;-54
2023/10/16 07:35:29;;;;;;;4.27;2.70;;;;;;;9.99;73.46;63992.88;5069844;28;20682;-51
2023/10/16 07:37:54;;;;;;;4.83;2.47;;;;;;;10.23;72.97;64020.59;5069856;28;20254;-53
2023/10/16 07:40:20;;;;;;;4.60;2.40;;;;;;;10.39;72.09;64033.59;5071126;28;20231;-55
2023/10/16 07:42:50;;;;;;;4.63;2.30;;;;;;;10.33;70.73;64029.00;5071491;28;20212;-54
2023/10/16 07:45:18;;;;;;;2.87;2.03;;;;;;;10.26;70.07;64021.88;5070990;28;20702;-60
2023/10/16 07:47:48;;;;;;;2.17;1.97;;;;;;;10.29;69.63;64022.09;5069738;28;20221;-53
2023/10/16 07:50:19;;;;;;;6.83;2.73;;;;;;;10.33;69.51;64029.56;5071071;28;20235;-56
2023/10/16 07:52:44;;;;;;;5.00;2.43;;;;;;;10.54;69.82;64052.56;5070514;28;20212;-54
2023/10/16 07:55:32;;;;;;;6.47;2.47;;;;;;;10.71;68.39;64068.63;5070973;28;20209;-54
2023/10/16 07:57:58;;;;;;;5.57;2.10;;;;;;;10.88;66.46;64089.22;5055984;28;20303;-57
2023/10/16 08:00:26;;;;;;;3.20;1.93;;;;;;;11.02;64.17;64104.53;5070959;28;20283;-55
2023/10/16 08:02:58;;;;;;;2.63;1.80;;;;;;;11.05;62.98;64105.31;5069512;28;20231;-55
2023/10/16 08:05:24;;;;;;;5.03;2.10;;;;;;;11.17;61.98;64120.97;5070865;28;20323;-53
2023/10/16 08:07:52;;;;;;;5.60;2.30;;;;;;;11.27;61.50;64129.41;5071069;28;20661;-57
2023/10/16 08:13:11;;;;;;;5.00;2.13;;;;;;;11.56;60.49;64161.16;5070820;28;20594;-54
2023/10/16 08:15:51;;;;;;;4.27;2.10;;;;;;;11.72;59.63;64181.25;5069395;28;20226;-56
2023/10/16 08:18:18;;;;;;;2.57;1.70;;;;;;;11.91;59.00;64199.00;5070706;28;20246;-54
2023/10/16 08:21:00;;;;;;;3.00;1.80;;;;;;;12.02;58.12;64213.03;5070621;28;20204;-55
2023/10/16 08:23:34;;;;;;;3.77;1.60;;;;;;;11.97;54.14;64205.03;5070743;28;20287;-54
2023/10/16 08:26:04;;;;;;;2.73;1.93;;;;;;;12.07;55.15;64218.50;5070731;28;20173;-55
2023/10/16 08:28:41;;;;;;;2.80;1.30;;;;;;;12.29;54.25;64240.66;5070602;28;20638;-55
2023/10/16 08:31:22;;;;;;;4.00;2.17;;;;;;;12.27;53.96;64238.47;5070259;28;20572;-54
2023/10/16 08:33:54;;;;;;;4.23;1.57;;;;;;;12.38;52.09;64255.03;5069261;28;20213;-52
2023/10/16 08:36:21;;;;;;;3.97;1.60;;;;;;;12.36;51.51;64253.38;5070476;28;20287;-53
2023/10/16 08:38:52;;;;;;;2.77;1.50;;;;;;;12.43;51.11;64255.47;5069084;28;20215;-54
2023/10/16 08:41:30;;;;;;;2.33;1.60;;;;;;;12.50;51.15;64265.66;5070453;28;20196;-52
2023/10/16 08:44:05;;;;;;;1.60;1.40;;;;;;;13.07;50.77;64328.22;5070188;28;20220;-57
2023/10/16 08:46:31;;;;;;;4.10;1.73;;;;;;;13.21;49.80;64338.50;5075302;22;20216;-54
2023/10/16 08:48:58;;;;;;;5.27;2.07;;;;;;;13.37;48.88;64361.13;5065490;28;20224;-54
2023/10/16 08:51:28;;;;;;;1.43;1.33;;;;;;;13.71;48.55;64394.84;5050320;28;20212;-54
2023/10/16 08:54:05;;;;;;;6.60;2.67;;;;;;;13.91;48.61;64417.34;5050356;28;20201;-56
2023/10/16 08:56:32;;;;;;;3.35;1.85;;;;;;;14.07;47.25;64434.38;5050307;28;20226;-56
2023/10/16 08:59:01;;;;;;;5.13;1.43;;;;;;;14.13;46.70;64441.53;5048799;28;20201;-55
2023/10/16 09:01:28;;;;;;;2.77;2.30;;;;;;;14.09;47.35;64439.09;5049979;28;20224;-54
2023/10/16 09:04:05;;;;;;;5.30;1.40;;;;;;;14.89;46.22;64523.94;5052998;28;20286;-54
2023/10/16 09:06:36;;;;;;;4.25;1.67;;;;;;;14.56;45.83;64488.25;5052446;28;20270;-57
2023/10/16 09:09:11;;;;;;;2.73;1.30;;;;;;;14.05;46.64;64432.72;5053669;28;20575;-55
2023/10/16 09:11:39;;;;;;;2.67;1.83;;;;;;;13.75;46.94;64402.31;5052014;28;20296;-53
2023/10/16 09:14:07;;;;;;;5.13;1.80;;;;;;;13.68;47.25;64392.09;5053357;28;20204;-53
2023/10/16 09:16:34;;;;;;;5.10;1.63;;;;;;;13.83;46.68;64408.56;5053178;28;20711;-52
2023/10/16 09:19:06;;;;;;;2.45;1.60;;;;;;;14.19;46.10;64447.56;5068673;28;20209;-53
2023/10/16 09:21:38;;;;;;;3.58;1.83;;;;;;;14.02;46.70;64431.97;5052269;28;20227;-53
2023/10/16 09:24:06;;;;;;;2.75;1.70;;;;;;;14.16;45.96;64441.72;5068593;28;20224;-52
2023/10/16 09:26:38;;;;;;;2.73;1.50;;;;;;;14.17;46.19;64445.34;5053019;28;20209;-53
2023/10/16 09:29:20;;;;;;;3.97;1.97;;;;;;;14.64;44.75;64499.56;5053193;28;20290;-52
2023/10/16 09:31:47;;;;;;;6.20;1.67;;;;;;;14.61;44.97;64496.25;5051538;28;20217;-52
2023/10/16 09:34:20;;;;;;;6.00;1.70;;;;;;;14.92;44.55;64529.78;5053051;28;20209;-53
2023/10/16 09:39:34;;;;;;;3.83;1.40;;;;;;;14.73;43.43;64508.88;5053184;28;20239;-53
2023/10/16 09:42:11;;;;;;;3.97;1.85;;;;;;;14.88;43.09;64523.41;5053107;28;20636;-51
2023/10/16 09:44:44;;;;;;;3.65;1.60;;;;;;;15.03;42.59;64542.44;5051830;28;20774;-52
2023/10/16 09:47:26;;;;;;;2.10;1.58;;;;;;;15.25;43.47;64565.53;5051798;28;20228;-54
2023/10/16 09:49:59;;;;;;;2.78;1.33;;;;;;;15.07;42.48;64546.81;5052994;28;20177;-52
2023/10/16 09:52:30;;;;;;;5.15;1.60;;;;;;;14.77;43.67;64511.31;5053180;28;20350;-54
2023/10/16 09:54:58;;;;;;;2.78;1.42;;;;;;;14.92;42.86;64527.81;5051298;28;20587;-54
2023/10/16 09:57:30;;;;;;;3.72;2.17;;;;;;;15.55;65.95;64596.00;5051347;28;20213;-53
2023/10/16 10:00:23;;;;;;;7.55;1.40;;;;;;;16.10;43.67;64659.03;5052765;28;20216;-52
2023/10/16 10:02:51;;;;;;;3.53;1.35;;;;;;;17.07;40.08;64759.69;5052409;28;20225;-51
2023/10/16 10:05:22;;;;;;;1.58;1.25;;;;;;;16.40;40.89;64689.53;5052601;28;20217;-53
2023/10/16 10:07:58;;;;;;;2.20;1.58;;;;;;;15.96;40.70;64643.63;5052764;28;20209;-51
2023/10/16 10:13:10;;;;;;;5.25;1.83;;;;;;;16.50;39.92;64698.00;5052831;28;20222;-52
2023/10/16 10:15:45;;;;;;;3.30;1.80;;;;;;;16.32;40.12;64678.16;5051420;28;20201;-52
2023/10/16 10:18:32;;;;;;;3.42;1.23;;;;;;;16.55;39.13;64706.06;5050711;28;20706;-53
2023/10/16 10:21:11;;;;;;;5.93;1.75;;;;;;;16.76;38.91;64729.19;5050794;28;20761;-55
2023/10/16 10:23:38;;;;;;;3.55;1.65;;;;;;;16.64;39.32;64715.44;5052223;28;20210;-54
2023/10/16 10:26:07;;;;;;;4.05;1.70;;;;;;;16.86;38.53;64739.09;5052012;28;20204;-55
2023/10/16 10:28:36;;;;;;;1.75;1.55;;;;;;;16.73;38.62;64723.34;5051715;28;20209;-53
2023/10/16 10:31:05;;;;;;;1.50;1.40;;;;;;;16.90;37.68;64744.06;5050276;28;20205;-55
2023/10/16 10:33:58;;;;;;;2.17;1.33;;;;;;;16.29;38.86;64677.41;5052223;28;20206;-53
2023/10/16 10:36:39;;;;;;;3.80;1.70;;;;;;;16.41;38.80;64690.63;5050660;28;20250;-54
2023/10/16 10:41:58;;;;;;;4.55;1.80;;;;;;;16.97;37.62;64751.22;5051892;28;20283;-54
2023/10/16 10:44:39;;;;;;;3.08;1.50;;;;;;;16.81;37.58;64731.06;5034296;28;20228;-54
2023/10/16 10:47:24;;;;;;;1.52;1.42;;;;;;;16.91;36.95;64744.63;5052015;28;20221;-53
2023/10/16 10:49:51;;;;;;;3.20;1.67;;;;;;;17.41;36.64;64797.69;5051774;28;20212;-55
2023/10/16 10:52:20;;;;;;;1.77;1.60;;;;;;;17.14;36.86;64770.50;5051941;28;20260;-53
2023/10/16 10:54:54;;;;;;;1.80;1.67;;;;;;;17.09;37.07;64761.91;5051656;28;20205;-57
2023/10/16 10:57:24;;;;;;;2.95;1.60;;;;;;;17.20;36.88;64776.56;5051856;28;20209;-56
2023/10/16 10:59:56;;;;;;;2.50;1.70;;;;;;;16.98;36.70;64750.31;5051710;28;20209;-53
2023/10/16 11:02:48;;;;;;;2.95;1.60;;;;;;;16.85;36.97;64738.00;5066901;28;20711;-52
2023/10/16 11:05:22;;;;;;;3.63;1.70;;;;;;;16.58;37.70;64708.81;5051293;28;20734;-53
2023/10/16 11:08:35;;;;;;;4.05;1.52;;;;;;;16.65;37.17;64716.53;5051456;28;20208;-53
2023/10/16 11:10:41;;;;;;;1.52;1.42;;;;;;;17.22;36.76;64778.75;5040690;28;20217;-54
2023/10/16 11:13:08;;;;;;;3.53;1.45;;;;;;;17.10;36.96;64763.53;5050210;28;20202;-53
2023/10/16 11:15:34;;;;;;;2.58;2.13;;;;;;;17.14;37.73;64769.94;5051448;28;20225;-54
2023/10/16 11:18:09;;;;;;;2.28;1.95;;;;;;;17.41;35.94;64797.69;5051247;28;20213;-53
2023/10/16 11:20:36;;;;;;;7.55;2.30;;;;;;;16.65;36.56;64713.97;5051469;28;20270;-54
2023/10/16 11:23:12;;;;;;;3.30;2.10;;;;;;;16.59;36.61;64710.47;5051473;28;20220;-53
2023/10/16 11:25:45;;;;;;;3.35;1.77;;;;;;;17.31;35.40;64788.69;5066575;28;20216;-53
2023/10/16 11:28:17;;;;;;;1.73;1.20;;;;;;;17.44;34.83;64801.00;5050929;28;20213;-57
2023/10/16 11:30:49;;;;;;;1.73;1.25;;;;;;;16.89;35.70;64745.50;5050190;28;20233;-54
2023/10/16 11:33:35;;;;;;;3.50;1.40;;;;;;;17.16;35.39;64772.16;5049739;28;20223;-54
2023/10/16 11:36:06;;;;;;;4.47;2.40;;;;;;;16.90;36.39;64740.97;5051323;28;20292;-53
2023/10/16 11:38:35;;;;;;;3.60;1.20;;;;;;;17.33;35.34;64785.78;5051147;28;20209;-54
2023/10/16 11:41:11;;;;;;;2.85;1.23;;;;;;;16.88;36.07;64741.31;5050872;28;20209;-54
2023/10/16 11:43:47;;;;;;;1.52;1.42;;;;;;;17.24;35.85;64778.41;5051166;28;20197;-54
2023/10/16 11:49:17;;;;;;;1.35;1.25;;;;;;;18.14;34.98;64879.66;5051198;28;20255;-51
2023/10/16 11:51:51;;;;;;;2.20;1.80;;;;;;;17.95;34.46;64856.69;5036312;28;20317;-55
2023/10/16 11:54:23;;;;;;;3.70;1.70;;;;;;;18.57;33.98;64924.53;5049675;28;20196;-51
2023/10/16 11:56:53;;;;;;;4.18;1.80;;;;;;;17.85;34.45;64845.09;5050921;28;20243;-52
2023/10/16 11:59:24;;;;;;;4.40;1.80;;;;;;;18.16;34.01;64879.84;5051020;28;20251;-52
2023/10/16 12:01:51;;;;;;;3.00;1.65;;;;;;;17.85;35.03;64848.22;5051004;28;20215;-55
2023/10/16 12:04:19;;;;;;;3.00;1.70;;;;;;;17.68;34.45;64829.47;5050735;28;20210;-52
2023/10/16 12:06:46;;;;;;;3.58;1.40;;;;;;;18.12;35.12;64874.88;5049330;28;20216;-52
2023/10/16 12:09:21;;;;;;;2.58;1.58;;;;;;;18.22;33.45;64886.44;5050640;28;20228;-52
2023/10/16 12:11:49;;;;;;;3.47;1.60;;;;;;;18.41;33.27;64906.84;5050627;28;20224;-52
2023/10/16 12:14:15;;;;;;;3.03;1.60;;;;;;;18.39;34.05;64907.75;5050495;28;20210;-52
2023/10/16 12:16:46;;;;;;;4.28;1.85;;;;;;;18.29;33.47;64896.72;5050351;28;20213;-51
2023/10/16 12:19:15;;;;;;;3.05;1.50;;;;;;;18.11;34.01;64876.88;5050592;28;20256;-52
2023/10/16 12:21:42;;;;;;;2.00;1.52;;;;;;;17.78;33.26;64837.94;5049109;28;20233;-51
2023/10/16 12:24:10;;;;;;;1.02;0.93;;;;;;;18.15;32.24;64880.72;5050254;28;20304;-52
2023/10/16 12:26:37;;;;;;;2.42;1.58;;;;;;;18.18;31.99;64882.03;5049147;28;20209;-51
2023/10/16 12:29:03;;;;;;;3.53;1.17;;;;;;;17.98;31.46;64859.44;5049181;28;20280;-51
2023/10/16 12:31:30;;;;;;;1.08;0.90;;;;;;;17.56;32.58;64814.25;5050616;28;20224;-52
2023/10/16 12:33:56;;;;;;;3.00;1.30;;;;;;;18.05;32.90;64867.72;5050327;28;20251;-55
2023/10/16 12:36:23;;;;;;;1.85;1.60;;;;;;;17.88;33.36;64850.94;5032225;28;20213;-55
2023/10/16 12:38:53;;;;;;;1.65;1.02;;;;;;;17.55;32.96;64813.13;5053353;28;20248;-55
2023/10/16 12:41:18;;;;;;;2.85;1.67;;;;;;;17.29;33.25;64784.47;5053991;28;20304;-55
2023/10/16 12:43:46;;;;;;;3.30;2.50;;;;;;;17.83;32.56;64842.91;5053409;28;20265;-54
2023/10/16 12:46:12;;;;;;;9.32;2.30;;;;;;;17.41;31.88;64797.69;5053608;28;20212;-55
2023/10/16 12:48:38;;;;;;;2.22;1.15;;;;;;;17.74;32.22;64836.09;5053709;28;20664;-55
2023/10/16 12:51:07;;;;;;;2.88;1.42;;;;;;;17.47;32.23;64803.75;5053550;28;20207;-53
2023/10/16 12:53:33;;;;;;;4.00;1.70;;;;;;;17.68;32.39;64826.91;5053949;28;20193;-53
2023/10/16 12:55:58;;;;;;;1.35;1.25;;;;;;;18.13;32.69;64878.53;5053782;28;20279;-54
2023/10/16 12:58:28;;;;;;;2.72;1.55;;;;;;;17.92;32.03;64852.81;5053647;28;20216;-54
2023/10/16 13:00:57;;;;;;;2.40;1.27;;;;;;;18.13;31.66;64881.63;5052059;28;20201;-52
2023/10/16 13:03:23;;;;;;;6.18;1.50;;;;;;;18.12;32.36;64877.97;5052253;28;20213;-53
2023/10/16 13:05:49;;;;;;;3.90;1.95;;;;;;;17.88;32.19;64853.50;5052113;28;20718;-51
2023/10/16 13:08:20;;;;;;;3.00;1.30;;;;;;;18.13;32.08;64879.09;5053534;28;20602;-52
2023/10/16 13:10:48;;;;;;;4.30;1.80;;;;;;;18.33;32.99;64898.59;5053355;28;20205;-52
2023/10/16 13:13:15;;;;;;;5.20;1.95;;;;;;;18.68;33.80;64936.13;5068724;28;20245;-52
2023/10/16 13:15:45;;;;;;;4.70;1.52;;;;;;;18.81;32.95;64951.00;5053380;28;20212;-54
2023/10/16 13:18:12;;;;;;;2.05;1.40;;;;;;;19.04;32.71;64978.94;5053394;28;20764;-56
2023/10/16 13:20:37;;;;;;;3.08;1.17;;;;;;;19.06;31.51;64978.03;5053191;28;20232;-58
2023/10/16 13:23:05;;;;;;;2.47;1.55;;;;;;;19.17;31.97;64992.72;5053126;28;20722;-54
2023/10/16 13:25:31;;;;;;;4.72;1.70;;;;;;;19.05;31.94;64976.94;5052983;28;20216;-54
2023/10/16 13:27:58;;;;;;;4.15;1.52;;;;;;;18.83;32.99;64952.66;5052783;28;20599;-54
2023/10/16 13:30:25;;;;;;;1.67;1.42;;;;;;;18.71;31.30;64941.97;5052995;28;20204;-57
2023/10/16 13:32:52;;;;;;;1.85;0.70;;;;;;;18.78;27.76;64947.16;5053204;28;20214;-55
2023/10/16 13:35:20;;;;;;;2.55;0.63;;;;;;;18.41;24.93;64907.41;5051953;28;20237;-53
2023/10/16 13:37:50;;;;;;;1.80;1.10;;;;;;;18.25;27.38;64892.31;5052909;28;20217;-51
2023/10/16 13:40:20;;;;;;;1.33;0.93;;;;;;;18.25;26.80;64892.31;5052708;28;20206;-51
2023/10/16 13:42:54;;;;;;;3.60;2.70;;;;;;;18.24;27.36;64888.66;5052689;28;20220;-55
2023/10/16 13:45:25;;;;;;;2.85;1.90;;;;;;;18.33;27.33;64901.13;5052766;28;20372;-63
2023/10/16 13:47:51;;;;;;;1.63;0.75;;;;;;;18.36;25.90;64904.44;5035602;28;20213;-54
2023/10/16 13:50:24;;;;;;;1.80;0.80;;;;;;;18.02;25.92;64864.41;5051739;28;20272;-52
2023/10/16 13:52:52;;;;;;;0.85;0.80;;;;;;;17.86;27.22;64849.31;5051077;28;20213;-54